Time;durP1;ratioP1;P1;durP2;ratioP2;P2;SDS_P1;SDS_P2;PMS_P1;PMS_P2;Temp;Humidity;BMP_temperature;BMP_pressure;BME280_temperature;BME280_humidity;BME280_pressure;Samples;Min_cycle;Max_cycle;Signal;HPM_P1;HPM_P2
2023/04/21 00:02:16;;;;;;;;;;;;;;;;;;5108524;28;19927;-67
2023/04/21 00:04:44;;;;;;;;;;;;;;;;;;5091997;28;20023;-66
2023/04/21 00:07:10;;;;;;;;;;;;;;;;;;5077075;28;19928;-67
2023/04/21 00:09:36;;;;;;;;;;;;;;;;;;5094971;28;19919;-67
2023/04/21 00:12:02;;;;;;;;;;;;;;;;;;5110532;28;19927;-67
2023/04/21 00:14:27;;;;;;;;;;;;;;;;;;5110925;28;20004;-67
2023/04/21 00:16:53;;;;;;;;;;;;;;;;;;5105796;28;20357;-67
2023/04/21 00:19:19;;;;;;;;;;;;;;;;;;5110157;28;19926;-67
2023/04/21 00:21:45;;;;;;;;;;;;;;;;;;5109498;28;20362;-68
2023/04/21 00:24:11;;;;;;;;;;;;;;;;;;5108570;28;20332;-67
2023/04/21 00:26:37;;;;;;;;;;;;;;;;;;5112785;28;19923;-66
2023/04/21 00:29:03;;;;;;;;;;;;;;;;;;5110782;28;19919;-66
2023/04/21 00:31:29;;;;;;;;;;;;;;;;;;5088940;28;19926;-66
2023/04/21 00:33:55;;;;;;;;;;;;;;;;;;5112865;28;19927;-67
2023/04/21 00:36:20;;;;;;;;;;;;;;;;;;5111784;28;19927;-67
2023/04/21 00:38:46;;;;;;;;;;;;;;;;;;5112065;28;19924;-68
2023/04/21 00:41:12;;;;;;;;;;;;;;;;;;5094445;28;20399;-67
2023/04/21 00:43:38;;;;;;;;;;;;;;;;;;5093645;28;19924;-67
2023/04/21 00:46:04;;;;;;;;;;;;;;;;;;5086533;28;19955;-67
2023/04/21 00:48:30;;;;;;;;;;;;;;;;;;5092196;28;19926;-67
2023/04/21 00:50:56;;;;;;;;;;;;;;;;;;5105056;28;19919;-66
2023/04/21 00:53:22;;;;;;;;;;;;;;;;;;5100960;28;19927;-66
2023/04/21 00:55:48;;;;;;;;;;;;;;;;;;5090261;28;20299;-67
2023/04/21 00:58:14;;;;;;;;;;;;;;;;;;5094580;28;19927;-66
2023/04/21 01:00:41;;;;;;;;;;;;;;;;;;5103172;28;21285;-67
2023/04/21 01:03:07;;;;;;;;;;;;;;;;;;5109281;28;20058;-67
2023/04/21 01:05:33;;;;;;;;;;;;;;;;;;5108165;28;19939;-66
2023/04/21 01:07:59;;;;;;;;;;;;;;;;;;5110860;28;19924;-67
2023/04/21 01:10:25;;;;;;;;;;;;;;;;;;5110061;28;19920;-66
2023/04/21 01:12:51;;;;;;;;;;;;;;;;;;5091507;28;19945;-67
2023/04/21 01:15:17;;;;;;;;;;;;;;;;;;5090845;28;19929;-67
2023/04/21 01:17:44;;;;;;;;;;;;;;;;;;5082502;28;19931;-67
2023/04/21 01:20:10;;;;;;;;;;;;;;;;;;5103648;28;19927;-67
2023/04/21 01:22:36;;;;;;;;;;;;;;;;;;5089401;28;19930;-67
2023/04/21 01:25:02;;;;;;;;;;;;;;;;;;5109217;28;19919;-67
2023/04/21 01:27:28;;;;;;;;;;;;;;;;;;5100634;28;19969;-67
2023/04/21 01:29:54;;;;;;;;;;;;;;;;;;5090509;28;20382;-67
2023/04/21 01:32:20;;;;;;;;;;;;;;;;;;5091790;28;19927;-66
2023/04/21 01:34:46;;;;;;;;;;;;;;;;;;5109428;28;20456;-68
2023/04/21 01:37:12;;;;;;;;;;;;;;;;;;5108294;28;19919;-67
2023/04/21 01:39:38;;;;;;;;;;;;;;;;;;5108461;28;19991;-66
2023/04/21 01:42:04;;;;;;;;;;;;;;;;;;5111345;28;19920;-67
2023/04/21 01:44:30;;;;;;;;;;;;;;;;;;5110353;28;20357;-67
2023/04/21 01:46:56;;;;;;;;;;;;;;;;;;5108839;28;19970;-68
2023/04/21 01:49:22;;;;;;;;;;;;;;;;;;5091400;28;19924;-67
2023/04/21 01:51:48;;;;;;;;;;;;;;;;;;5111044;28;19951;-67
2023/04/21 01:54:14;;;;;;;;;;;;;;;;;;5090503;28;20364;-67
2023/04/21 01:56:40;;;;;;;;;;;;;;;;;;5108111;28;19919;-67
2023/04/21 01:59:06;;;;;;;;;;;;;;;;;;5110171;28;19927;-67
2023/04/21 02:01:32;;;;;;;;;;;;;;;;;;5081786;28;20621;-67
2023/04/21 02:03:58;;;;;;;;;;;;;;;;;;5087943;28;19927;-67
2023/04/21 02:06:23;;;;;;;;;;;;;;;;;;5106200;28;20299;-67
2023/04/21 02:08:49;;;;;;;;;;;;;;;;;;5086606;28;19970;-67
2023/04/21 02:11:15;;;;;;;;;;;;;;;;;;5108999;28;19923;-67
2023/04/21 02:13:41;;;;;;;;;;;;;;;;;;5092361;28;20060;-67
2023/04/21 02:16:07;;;;;;;;;;;;;;;;;;5109212;28;20014;-66
2023/04/21 02:18:33;;;;;;;;;;;;;;;;;;5073854;28;20060;-66
2023/04/21 02:20:59;;;;;;;;;;;;;;;;;;5098745;28;19983;-66
2023/04/21 02:23:25;;;;;;;;;;;;;;;;;;5116841;28;19945;-68
2023/04/21 02:25:51;;;;;;;;;;;;;;;;;;5112515;28;19924;-68
2023/04/21 02:28:16;;;;;;;;;;;;;;;;;;5105895;28;20507;-67
2023/04/21 02:30:42;;;;;;;;;;;;;;;;;;5077995;28;19927;-67
2023/04/21 02:33:08;;;;;;;;;;;;;;;;;;5112380;28;19931;-67
2023/04/21 02:35:34;;;;;;;;;;;;;;;;;;5109503;28;20437;-67
2023/04/21 02:38:06;;;;;;;;;;;;;;;;;;5097684;28;19941;-67
2023/04/21 02:40:31;;;;;;;;;;;;;;;;;;5097120;28;19924;-66
2023/04/21 02:42:57;;;;;;;;;;;;;;;;;;5117249;28;19926;-66
2023/04/21 02:45:23;;;;;;;;;;;;;;;;;;5099403;28;19927;-66
2023/04/21 02:47:49;;;;;;;;;;;;;;;;;;5106162;28;19955;-66
2023/04/21 02:50:15;;;;;;;;;;;;;;;;;;5116714;28;20312;-67
2023/04/21 02:52:41;;;;;;;;;;;;;;;;;;5115337;28;19974;-67
2023/04/21 02:55:07;;;;;;;;;;;;;;;;;;5110491;28;20007;-67
2023/04/21 02:57:33;;;;;;;;;;;;;;;;;;5093348;28;20389;-67
2023/04/21 02:59:59;;;;;;;;;;;;;;;;;;5112443;28;19927;-67
2023/04/21 03:02:25;;;;;;;;;;;;;;;;;;5097275;28;19936;-66
2023/04/21 03:04:52;;;;;;;;;;;;;;;;;;5116933;28;20318;-68
2023/04/21 03:07:17;;;;;;;;;;;;;;;;;;5112815;28;19927;-67
2023/04/21 03:09:43;;;;;;;;;;;;;;;;;;5111347;28;19935;-67
2023/04/21 03:12:09;;;;;;;;;;;;;;;;;;5115675;28;19919;-67
2023/04/21 03:14:35;;;;;;;;;;;;;;;;;;5112445;28;19975;-65
2023/04/21 03:17:01;;;;;;;;;;;;;;;;;;5095139;28;19920;-66
2023/04/21 03:19:28;;;;;;;;;;;;;;;;;;5118789;28;20043;-66
2023/04/21 03:21:54;;;;;;;;;;;;;;;;;;5116640;28;19924;-66
2023/04/21 03:24:20;;;;;;;;;;;;;;;;;;5095737;28;19920;-67
2023/04/21 03:26:46;;;;;;;;;;;;;;;;;;5112501;28;19920;-67
2023/04/21 03:29:12;;;;;;;;;;;;;;;;;;5114923;28;19950;-67
2023/04/21 03:31:38;;;;;;;;;;;;;;;;;;5090687;28;20357;-66
2023/04/21 03:34:03;;;;;;;;;;;;;;;;;;5087123;28;19935;-66
2023/04/21 03:36:30;;;;;;;;;;;;;;;;;;5092496;28;19924;-67
2023/04/21 03:38:57;;;;;;;;;;;;;;;;;;5093939;28;19969;-66
2023/04/21 03:41:23;;;;;;;;;;;;;;;;;;5078028;28;19927;-66
2023/04/21 03:43:49;;;;;;;;;;;;;;;;;;5111351;28;19924;-67
2023/04/21 03:46:15;;;;;;;;;;;;;;;;;;5084948;28;19927;-67
2023/04/21 03:48:41;;;;;;;;;;;;;;;;;;5070775;28;19920;-67
2023/04/21 03:51:07;;;;;;;;;;;;;;;;;;5070229;28;20669;-67
2023/04/21 03:53:33;;;;;;;;;;;;;;;;;;5110137;28;19924;-68
2023/04/21 03:55:59;;;;;;;;;;;;;;;;;;5090760;28;20333;-67
2023/04/21 03:58:25;;;;;;;;;;;;;;;;;;5111815;28;20401;-67
2023/04/21 04:00:50;;;;;;;;;;;;;;;;;;5106965;28;19973;-67
2023/04/21 04:03:16;;;;;;;;;;;;;;;;;;5088298;28;20366;-67
2023/04/21 04:05:42;;;;;;;;;;;;;;;;;;5103265;28;19953;-68
2023/04/21 04:08:08;;;;;;;;;;;;;;;;;;5110326;28;19927;-67
2023/04/21 04:10:34;;;;;;;;;;;;;;;;;;5105793;28;19947;-67
2023/04/21 04:13:00;;;;;;;;;;;;;;;;;;5076322;28;20014;-66
2023/04/21 04:15:26;;;;;;;;;;;;;;;;;;5104617;28;19966;-67
2023/04/21 04:17:52;;;;;;;;;;;;;;;;;;5092321;28;19926;-67
2023/04/21 04:20:18;;;;;;;;;;;;;;;;;;5093650;28;19920;-67
2023/04/21 04:22:44;;;;;;;;;;;;;;;;;;5084972;28;19989;-68
2023/04/21 04:25:11;;;;;;;;;;;;;;;;;;5075342;28;19959;-67
2023/04/21 04:27:37;;;;;;;;;;;;;;;;;;5108073;28;19927;-67
2023/04/21 04:30:04;;;;;;;;;;;;;;;;;;5110329;28;20039;-67
2023/04/21 04:32:30;;;;;;;;;;;;;;;;;;5108249;28;19928;-68
2023/04/21 04:34:56;;;;;;;;;;;;;;;;;;5089091;28;20309;-66
2023/04/21 04:37:22;;;;;;;;;;;;;;;;;;5108741;28;19920;-67
2023/04/21 04:39:49;;;;;;;;;;;;;;;;;;5110100;28;19920;-66
2023/04/21 04:42:15;;;;;;;;;;;;;;;;;;5087674;28;19969;-67
2023/04/21 04:44:41;;;;;;;;;;;;;;;;;;5109034;28;19920;-66
2023/04/21 04:47:07;;;;;;;;;;;;;;;;;;5090434;28;19931;-68
2023/04/21 04:49:33;;;;;;;;;;;;;;;;;;5091407;28;20377;-66
2023/04/21 04:52:00;;;;;;;;;;;;;;;;;;5098603;28;19974;-68
2023/04/21 04:54:28;;;;;;;;;;;;;;;;;;5105573;28;19923;-67
2023/04/21 04:56:54;;;;;;;;;;;;;;;;;;5090372;28;20377;-67
2023/04/21 04:59:20;;;;;;;;;;;;;;;;;;5108460;28;19926;-66
2023/04/21 05:01:46;;;;;;;;;;;;;;;;;;5107316;28;20357;-67
2023/04/21 05:04:15;;;;;;;;;;;;;;;;;;5088672;28;19962;-67
2023/04/21 05:06:41;;;;;;;;;;;;;;;;;;5104925;28;19924;-67
2023/04/21 05:09:07;;;;;;;;;;;;;;;;;;5102242;28;20631;-67
2023/04/21 05:11:33;;;;;;;;;;;;;;;;;;5104568;28;19920;-66
2023/04/21 05:13:59;;;;;;;;;;;;;;;;;;5091521;28;19927;-67
2023/04/21 05:16:25;;;;;;;;;;;;;;;;;;5102130;28;19923;-67
2023/04/21 05:18:52;;;;;;;;;;;;;;;;;;5071290;28;20388;-66
2023/04/21 05:21:18;;;;;;;;;;;;;;;;;;5088628;28;19924;-67
2023/04/21 05:23:44;;;;;;;;;;;;;;;;;;5083079;28;20038;-66
2023/04/21 05:26:10;;;;;;;;;;;;;;;;;;5064752;28;20388;-67
2023/04/21 05:28:36;;;;;;;;;;;;;;;;;;5088092;28;19931;-67
2023/04/21 05:31:02;;;;;;;;;;;;;;;;;;5107680;28;19959;-67
2023/04/21 05:33:30;;;;;;;;;;;;;;;;;;5091214;28;19978;-67
2023/04/21 05:35:56;;;;;;;;;;;;;;;;;;5091212;28;19927;-67
2023/04/21 05:38:22;;;;;;;;;;;;;;;;;;5092241;28;20003;-67
2023/04/21 05:40:48;;;;;;;;;;;;;;;;;;5111800;28;20266;-66
2023/04/21 05:43:14;;;;;;;;;;;;;;;;;;5089202;28;19932;-68
2023/04/21 05:45:40;;;;;;;;;;;;;;;;;;5093270;28;19919;-68
2023/04/21 05:48:06;;;;;;;;;;;;;;;;;;5112399;28;20006;-68
2023/04/21 05:50:34;;;;;;;;;;;;;;;;;;5112617;28;19930;-68
2023/04/21 05:53:00;;;;;;;;;;;;;;;;;;5103244;28;19928;-67
2023/04/21 05:55:26;;;;;;;;;;;;;;;;;;5092177;28;19924;-67
2023/04/21 05:57:51;;;;;;;;;;;;;;;;;;5091751;28;19942;-67
2023/04/21 06:00:17;;;;;;;;;;;;;;;;;;5088653;28;19967;-67
2023/04/21 06:02:43;;;;;;;;;;;;;;;;;;5111013;28;20039;-68
2023/04/21 06:05:09;;;;;;;;;;;;;;;;;;5111469;28;19920;-68
2023/04/21 06:07:36;;;;;;;;;;;;;;;;;;5056696;28;20391;-68
2023/04/21 06:10:02;;;;;;;;;;;;;;;;;;5091757;28;20388;-68
2023/04/21 06:12:28;;;;;;;;;;;;;;;;;;5091886;28;20019;-68
2023/04/21 06:14:58;;;;;;;;;;;;;;;;;;5078011;28;20457;-67
2023/04/21 06:17:24;;;;;;;;;;;;;;;;;;5112342;28;20402;-67
2023/04/21 06:19:52;;;;;;;;;;;;;;;;;;5108933;28;19951;-67
2023/04/21 06:22:17;;;;;;;;;;;;;;;;;;5093397;28;19927;-67
2023/04/21 06:24:43;;;;;;;;;;;;;;;;;;5093854;28;19924;-67
2023/04/21 06:27:10;;;;;;;;;;;;;;;;;;5112107;28;20284;-68
2023/04/21 06:29:36;;;;;;;;;;;;;;;;;;5093658;28;19924;-67
2023/04/21 06:32:02;;;;;;;;;;;;;;;;;;5111963;28;20384;-67
2023/04/21 06:34:28;;;;;;;;;;;;;;;;;;5110558;28;19962;-67
2023/04/21 06:36:53;;;;;;;;;;;;;;;;;;5101489;28;19939;-68
2023/04/21 06:39:19;;;;;;;;;;;;;;;;;;5111114;28;20309;-67
2023/04/21 06:41:45;;;;;;;;;;;;;;;;;;5092405;28;19927;-67
2023/04/21 06:44:12;;;;;;;;;;;;;;;;;;5091725;28;19920;-68
2023/04/21 06:46:39;;;;;;;;;;;;;;;;;;5091680;28;19935;-66
2023/04/21 06:49:05;;;;;;;;;;;;;;;;;;5091731;28;19920;-67
2023/04/21 06:51:31;;;;;;;;;;;;;;;;;;5093009;28;23099;-67
2023/04/21 06:53:57;;;;;;;;;;;;;;;;;;5092399;28;19932;-67
2023/04/21 06:56:23;;;;;;;;;;;;;;;;;;5111697;28;19920;-66
2023/04/21 06:58:49;;;;;;;;;;;;;;;;;;5110936;28;19926;-67
2023/04/21 07:01:15;;;;;;;;;;;;;;;;;;5107239;28;19924;-67
2023/04/21 07:03:40;;;;;;;;;;;;;;;;;;5111627;28;19920;-67
2023/04/21 07:06:06;;;;;;;;;;;;;;;;;;5082009;28;19920;-67
2023/04/21 07:08:32;;;;;;;;;;;;;;;;;;5076662;28;19924;-68
2023/04/21 07:10:58;;;;;;;;;;;;;;;;;;5092889;28;20441;-67
2023/04/21 07:13:24;;;;;;;;;;;;;;;;;;5112289;28;19932;-67
2023/04/21 07:15:50;;;;;;;;;;;;;;;;;;5072547;28;19934;-67
2023/04/21 07:18:16;;;;;;;;;;;;;;;;;;5110514;28;19927;-67
2023/04/21 07:20:42;;;;;;;;;;;;;;;;;;5109519;28;19971;-67
2023/04/21 07:23:08;;;;;;;;;;;;;;;;;;5089091;28;19920;-67
2023/04/21 07:25:34;;;;;;;;;;;;;;;;;;5093142;28;19977;-67
2023/04/21 07:28:01;;;;;;;;;;;;;;;;;;5092720;28;19962;-67
2023/04/21 07:30:28;;;;;;;;;;;;;;;;;;5092587;28;19924;-67
2023/04/21 07:32:54;;;;;;;;;;;;;;;;;;5112845;28;19927;-67
2023/04/21 07:35:20;;;;;;;;;;;;;;;;;;5111975;28;19938;-67
2023/04/21 07:37:46;;;;;;;;;;;;;;;;;;5093397;28;19927;-67
2023/04/21 07:40:12;;;;;;;;;;;;;;;;;;5091667;28;19924;-69
2023/04/21 07:42:38;;;;;;;;;;;;;;;;;;5108213;28;19924;-66
2023/04/21 07:45:04;;;;;;;;;;;;;;;;;;5093190;28;19920;-67
2023/04/21 07:47:30;;;;;;;;;;;;;;;;;;5093665;28;19926;-66
2023/04/21 07:49:56;;;;;;;;;;;;;;;;;;5098506;28;19941;-66
2023/04/21 07:52:22;;;;;;;;;;;;;;;;;;5110140;28;20289;-66
2023/04/21 07:54:47;;;;;;;;;;;;;;;;;;5110637;28;19931;-67
2023/04/21 07:57:13;;;;;;;;;;;;;;;;;;5091584;28;19919;-66
2023/04/21 07:59:39;;;;;;;;;;;;;;;;;;5107994;28;19976;-67
2023/04/21 08:02:05;;;;;;;;;;;;;;;;;;5109030;28;19953;-66
2023/04/21 08:04:31;;;;;;;;;;;;;;;;;;5107498;28;20023;-66
2023/04/21 08:06:57;;;;;;;;;;;;;;;;;;5092214;28;20067;-67
2023/04/21 08:09:23;;;;;;;;;;;;;;;;;;5112119;28;20384;-67
2023/04/21 08:11:49;;;;;;;;;;;;;;;;;;5114150;28;19920;-67
2023/04/21 08:14:15;;;;;;;;;;;;;;;;;;5110091;28;19924;-66
2023/04/21 08:16:41;;;;;;;;;;;;;;;;;;5110836;28;20426;-66
2023/04/21 08:19:07;;;;;;;;;;;;;;;;;;5112189;28;19924;-67
2023/04/21 08:21:33;;;;;;;;;;;;;;;;;;5113145;28;20030;-67
2023/04/21 08:23:59;;;;;;;;;;;;;;;;;;5112962;28;19920;-67
2023/04/21 08:26:25;;;;;;;;;;;;;;;;;;5082386;28;20027;-66
2023/04/21 08:28:51;;;;;;;;;;;;;;;;;;5080807;28;20018;-66
2023/04/21 08:31:17;;;;;;;;;;;;;;;;;;5107143;28;19923;-67
2023/04/21 08:33:43;;;;;;;;;;;;;;;;;;5091878;28;19935;-67
2023/04/21 08:36:10;;;;;;;;;;;;;;;;;;5108671;28;19974;-66
2023/04/21 08:38:35;;;;;;;;;;;;;;;;;;5112326;28;20537;-66
2023/04/21 08:41:01;;;;;;;;;;;;;;;;;;5110639;28;19973;-66
2023/04/21 08:43:27;;;;;;;;;;;;;;;;;;5110988;28;19927;-66
2023/04/21 08:45:53;;;;;;;;;;;;;;;;;;5110424;28;19931;-66
2023/04/21 08:48:20;;;;;;;;;;;;;;;;;;5094813;28;19927;-66
2023/04/21 08:50:46;;;;;;;;;;;;;;;;;;5112653;28;19923;-67
2023/04/21 08:53:12;;;;;;;;;;;;;;;;;;5091727;28;20408;-66
2023/04/21 08:55:38;;;;;;;;;;;;;;;;;;5109178;28;19924;-66
2023/04/21 08:58:05;;;;;;;;;;;;;;;;;;5106189;28;20418;-66
2023/04/21 09:00:31;;;;;;;;;;;;;;;;;;5096203;28;19919;-66
2023/04/21 09:02:57;;;;;;;;;;;;;;;;;;5092233;28;19935;-66
2023/04/21 09:05:23;;;;;;;;;;;;;;;;;;5108252;28;20366;-66
2023/04/21 09:07:49;;;;;;;;;;;;;;;;;;5109224;28;20266;-66
2023/04/21 09:10:15;;;;;;;;;;;;;;;;;;5091598;28;19938;-67
2023/04/21 09:12:41;;;;;;;;;;;;;;;;;;5111497;28;19932;-66
2023/04/21 09:15:07;;;;;;;;;;;;;;;;;;5091095;28;20293;-66
2023/04/21 09:17:35;;;;;;;;;;;;;;;;;;5109892;28;20007;-66
2023/04/21 09:20:01;;;;;;;;;;;;;;;;;;5107600;28;20564;-66
2023/04/21 09:22:28;;;;;;;;;;;;;;;;;;5107326;28;20352;-66
2023/04/21 09:24:54;;;;;;;;;;;;;;;;;;5088581;28;19924;-66
2023/04/21 09:27:20;;;;;;;;;;;;;;;;;;5111485;28;19973;-67
2023/04/21 09:29:47;;;;;;;;;;;;;;;;;;5110516;28;20647;-66
2023/04/21 09:32:13;;;;;;;;;;;;;;;;;;5105673;28;19965;-67
2023/04/21 09:34:38;;;;;;;;;;;;;;;;;;5105742;28;19943;-66
2023/04/21 09:37:04;;;;;;;;;;;;;;;;;;5067059;28;20396;-66
2023/04/21 09:39:30;;;;;;;;;;;;;;;;;;5102913;28;19971;-67
2023/04/21 09:41:57;;;;;;;;;;;;;;;;;;5088398;28;20007;-67
2023/04/21 09:44:23;;;;;;;;;;;;;;;;;;5086314;28;19927;-67
2023/04/21 09:46:49;;;;;;;;;;;;;;;;;;5104568;28;20021;-67
2023/04/21 09:49:15;;;;;;;;;;;;;;;;;;5073694;28;19942;-67
2023/04/21 09:51:41;;;;;;;;;;;;;;;;;;5098963;28;19934;-67
2023/04/21 09:54:06;;;;;;;;;;;;;;;;;;5099069;28;19979;-67
2023/04/21 09:56:32;;;;;;;;;;;;;;;;;;5091681;28;19924;-67
2023/04/21 09:58:58;;;;;;;;;;;;;;;;;;5111680;28;19926;-67
2023/04/21 10:01:24;;;;;;;;;;;;;;;;;;5108398;28;20432;-67
2023/04/21 10:03:51;;;;;;;;;;;;;;;;;;5086117;28;19924;-68
2023/04/21 10:06:17;;;;;;;;;;;;;;;;;;5093539;28;19977;-67
2023/04/21 10:08:43;;;;;;;;;;;;;;;;;;5085991;28;19993;-67
2023/04/21 10:11:09;;;;;;;;;;;;;;;;;;5096971;28;19924;-67
2023/04/21 10:13:35;;;;;;;;;;;;;;;;;;5111926;28;19924;-66
2023/04/21 10:16:01;;;;;;;;;;;;;;;;;;5112134;28;19920;-67
2023/04/21 10:18:27;;;;;;;;;;;;;;;;;;5111893;28;20353;-67
2023/04/21 10:20:53;;;;;;;;;;;;;;;;;;5111327;28;19996;-67
2023/04/21 10:23:19;;;;;;;;;;;;;;;;;;5106825;28;19920;-67
2023/04/21 10:25:45;;;;;;;;;;;;;;;;;;5091759;28;19927;-67
2023/04/21 10:28:11;;;;;;;;;;;;;;;;;;5091836;28;19924;-66
2023/04/21 10:30:37;;;;;;;;;;;;;;;;;;5104103;28;19924;-67
2023/04/21 10:33:03;;;;;;;;;;;;;;;;;;5073090;28;19970;-68
2023/04/21 10:35:29;;;;;;;;;;;;;;;;;;5102805;28;19959;-67
2023/04/21 10:37:55;;;;;;;;;;;;;;;;;;5089195;28;20502;-66
2023/04/21 10:40:21;;;;;;;;;;;;;;;;;;5109675;28;20372;-68
2023/04/21 10:42:47;;;;;;;;;;;;;;;;;;5112636;28;19920;-67
2023/04/21 10:45:13;;;;;;;;;;;;;;;;;;5107598;28;19985;-67
2023/04/21 10:47:42;;;;;;;;;;;;;;;;;;5111673;28;19935;-68
2023/04/21 10:50:08;;;;;;;;;;;;;;;;;;5113126;22;19924;-63
2023/04/21 10:52:34;;;;;;;;;;;;;;;;;;5094802;28;20659;-63
2023/04/21 10:55:00;;;;;;;;;;;;;;;;;;5078367;28;19973;-62
2023/04/21 10:57:30;;;;;;;;;;;;;;;;;;5094396;28;19966;-62
2023/04/21 10:59:56;;;;;;;;;;;;;;;;;;5076656;28;20030;-63
2023/04/21 11:02:22;;;;;;;;;;;;;;;;;;5077247;28;20023;-65
2023/04/21 11:04:48;;;;;;;;;;;;;;;;;;5075955;28;19927;-65
2023/04/21 11:07:15;;;;;;;;;;;;;;;;;;5071627;28;20356;-62
2023/04/21 11:09:41;;;;;;;;;;;;;;;;;;5074904;28;19924;-62
2023/04/21 11:12:07;;;;;;;;;;;;;;;;;;5088869;28;19927;-63
2023/04/21 11:14:34;;;;;;;;;;;;;;;;;;5064387;28;19925;-66
2023/04/21 11:17:00;;;;;;;;;;;;;;;;;;5069616;28;19937;-67
2023/04/21 11:19:26;;;;;;;;;;;;;;;;;;5069324;28;20357;-67
2023/04/21 11:21:51;;;;;;;;;;;;;;;;;;5067449;28;19928;-66
2023/04/21 11:24:17;;;;;;;;;;;;;;;;;;5091961;28;19947;-66
2023/04/21 11:26:43;;;;;;;;;;;;;;;;;;5090065;28;19920;-66
2023/04/21 11:29:09;;;;;;;;;;;;;;;;;;5074105;28;19962;-66
2023/04/21 11:31:35;;;;;;;;;;;;;;;;;;5064220;28;19925;-66
2023/04/21 11:34:03;;;;;;;;;;;;;;;;;;5073489;28;19939;-66
2023/04/21 11:36:29;;;;;;;;;;;;;;;;;;5068998;28;19920;-66
2023/04/21 11:38:55;;;;;;;;;;;;;;;;;;5082279;28;19927;-65
2023/04/21 11:41:21;;;;;;;;;;;;;;;;;;5062940;28;19939;-66
2023/04/21 11:43:47;;;;;;;;;;;;;;;;;;5071024;28;20053;-65
2023/04/21 11:46:13;;;;;;;;;;;;;;;;;;5077966;28;20542;-66
2023/04/21 11:48:39;;;;;;;;;;;;;;;;;;5071778;28;19958;-66
2023/04/21 11:51:07;;;;;;;;;;;;;;;;;;5085203;28;21299;-67
2023/04/21 11:53:33;;;;;;;;;;;;;;;;;;5092201;28;19924;-66
2023/04/21 11:56:00;;;;;;;;;;;;;;;;;;5071068;28;20278;-66
2023/04/21 11:58:25;;;;;;;;;;;;;;;;;;5093667;28;19920;-66
2023/04/21 12:00:51;;;;;;;;;;;;;;;;;;5079146;28;19924;-66
2023/04/21 12:03:17;;;;;;;;;;;;;;;;;;5046961;28;20397;-66
2023/04/21 12:05:43;;;;;;;;;;;;;;;;;;5072869;28;19925;-67
2023/04/21 12:08:09;;;;;;;;;;;;;;;;;;5088075;28;19934;-67
2023/04/21 12:10:35;;;;;;;;;;;;;;;;;;5063368;28;19920;-66
2023/04/21 12:13:01;;;;;;;;;;;;;;;;;;5087482;28;20028;-65
2023/04/21 12:15:27;;;;;;;;;;;;;;;;;;5093215;28;20018;-61
2023/04/21 12:17:54;;;;;;;;;;;;;;;;;;5094068;28;19999;-65
2023/04/21 12:20:19;;;;;;;;;;;;;;;;;;5071845;28;19928;-66
2023/04/21 12:22:46;;;;;;;;;;;;;;;;;;5093534;28;19931;-65
2023/04/21 12:25:12;;;;;;;;;;;;;;;;;;5075172;28;19926;-65
2023/04/21 12:27:38;;;;;;;;;;;;;;;;;;5094644;28;20395;-62
2023/04/21 12:30:03;;;;;;;;;;;;;;;;;;5095004;28;19924;-62
2023/04/21 12:32:30;;;;;;;;;;;;;;;;;;5092988;28;19932;-62
2023/04/21 12:34:55;;;;;;;;;;;;;;;;;;5091312;28;19920;-63
2023/04/21 12:37:21;;;;;;;;;;;;;;;;;;5086755;28;19931;-63
2023/04/21 12:39:47;;;;;;;;;;;;;;;;;;5071584;28;20026;-63
2023/04/21 12:42:13;;;;;;;;;;;;;;;;;;5090168;28;19926;-62
2023/04/21 12:44:39;;;;;;;;;;;;;;;;;;5076096;28;19920;-62
2023/04/21 12:47:05;;;;;;;;;;;;;;;;;;5093833;28;19924;-62
2023/04/21 12:49:31;;;;;;;;;;;;;;;;;;5074670;28;20492;-63
2023/04/21 12:51:57;;;;;;;;;;;;;;;;;;5093287;28;19920;-62
2023/04/21 12:54:23;;;;;;;;;;;;;;;;;;5092392;28;20320;-62
2023/04/21 12:56:49;;;;;;;;;;;;;;;;;;5092482;28;19931;-63
2023/04/21 12:59:15;;;;;;;;;;;;;;;;;;5075173;28;19973;-63
2023/04/21 13:01:43;;;;;;;;;;;;;;;;;;5092962;28;20426;-63
2023/04/21 13:04:09;;;;;;;;;;;;;;;;;;5092804;28;19920;-62
2023/04/21 13:06:35;;;;;;;;;;;;;;;;;;5073813;28;19927;-62
2023/04/21 13:09:02;;;;;;;;;;;;;;;;;;5092261;28;19949;-63
2023/04/21 13:11:27;;;;;;;;;;;;;;;;;;5090302;28;19924;-62
2023/04/21 13:13:53;;;;;;;;;;;;;;;;;;5090467;28;20269;-62
2023/04/21 13:16:19;;;;;;;;;;;;;;;;;;5093171;28;19967;-62
2023/04/21 13:18:46;;;;;;;;;;;;;;;;;;5093028;28;19920;-66
2023/04/21 13:21:12;;;;;;;;;;;;;;;;;;5054371;28;19920;-66
2023/04/21 13:23:37;;;;;;;;;;;;;;;;;;5074607;28;19935;-65
2023/04/21 13:26:03;;;;;;;;;;;;;;;;;;5091678;28;20408;-66
2023/04/21 13:28:29;;;;;;;;;;;;;;;;;;5065745;28;19920;-67
2023/04/21 13:30:55;;;;;;;;;;;;;;;;;;5091455;28;19977;-66
2023/04/21 13:33:21;;;;;;;;;;;;;;;;;;5091923;28;20015;-65
2023/04/21 13:35:47;;;;;;;;;;;;;;;;;;5073697;28;19924;-65
2023/04/21 13:38:13;;;;;;;;;;;;;;;;;;5089661;28;19920;-65
2023/04/21 13:40:39;;;;;;;;;;;;;;;;;;5055155;28;20003;-64
2023/04/21 13:43:05;;;;;;;;;;;;;;;;;;5065262;28;19924;-65
2023/04/21 13:45:31;;;;;;;;;;;;;;;;;;5073864;28;19928;-65
2023/04/21 13:47:59;;;;;;;;;;;;;;;;;;5092220;28;20407;-65
2023/04/21 13:50:25;;;;;;;;;;;;;;;;;;5057240;28;19930;-66
2023/04/21 13:52:51;;;;;;;;;;;;;;;;;;5073013;28;20018;-65
2023/04/21 13:55:17;;;;;;;;;;;;;;;;;;5092175;28;19924;-66
2023/04/21 13:57:43;;;;;;;;;;;;;;;;;;5091728;28;20344;-65
2023/04/21 14:00:10;;;;;;;;;;;;;;;;;;5092035;28;19920;-65
2023/04/21 14:02:36;;;;;;;;;;;;;;;;;;5092146;28;19924;-66
2023/04/21 14:05:02;;;;;;;;;;;;;;;;;;5092072;28;19951;-65
2023/04/21 14:07:28;;;;;;;;;;;;;;;;;;5091730;28;20014;-65
2023/04/21 14:09:54;;;;;;;;;;;;;;;;;;5072342;28;20023;-65
2023/04/21 14:12:20;;;;;;;;;;;;;;;;;;5091456;28;19920;-65
2023/04/21 14:14:46;;;;;;;;;;;;;;;;;;5091170;28;19973;-65
2023/04/21 14:17:14;;;;;;;;;;;;;;;;;;5091652;28;19988;-65
2023/04/21 14:19:40;;;;;;;;;;;;;;;;;;5087407;28;19946;-65
2023/04/21 14:22:06;;;;;;;;;;;;;;;;;;5103793;28;19924;-65
2023/04/21 14:24:32;;;;;;;;;;;;;;;;;;5112386;28;20296;-65
2023/04/21 14:26:58;;;;;;;;;;;;;;;;;;5098542;28;20549;-65
2023/04/21 14:29:24;;;;;;;;;;;;;;;;;;5091905;28;19920;-64
2023/04/21 14:31:50;;;;;;;;;;;;;;;;;;5091619;28;19924;-65
2023/04/21 14:34:16;;;;;;;;;;;;;;;;;;5092735;28;20404;-61
2023/04/21 14:36:41;;;;;;;;;;;;;;;;;;5092510;28;19973;-61
2023/04/21 14:39:09;;;;;;;;;;;;;;;;;;5074274;28;19946;-61
2023/04/21 14:41:34;;;;;;;;;;;;;;;;;;5092192;28;19920;-61
2023/04/21 14:44:02;;;;;;;;;;;;;;;;;;5086882;28;21874;-62
2023/04/21 14:46:28;;;;;;;;;;;;;;;;;;5057264;28;19928;-62
2023/04/21 14:48:54;;;;;;;;;;;;;;;;;;5076706;28;20639;-62
2023/04/21 14:51:20;;;;;;;;;;;;;;;;;;5092346;28;19973;-62
2023/04/21 14:53:46;;;;;;;;;;;;;;;;;;5081641;28;19986;-62
2023/04/21 14:56:12;;;;;;;;;;;;;;;;;;5067451;28;20397;-62
2023/04/21 14:58:38;;;;;;;;;;;;;;;;;;5088834;28;19931;-62
2023/04/21 15:01:04;;;;;;;;;;;;;;;;;;5087950;28;19946;-62
2023/04/21 15:03:30;;;;;;;;;;;;;;;;;;5063335;28;20278;-61
2023/04/21 15:05:56;;;;;;;;;;;;;;;;;;5082019;28;20384;-61
2023/04/21 15:08:22;;;;;;;;;;;;;;;;;;5071592;28;19924;-62
2023/04/21 15:10:47;;;;;;;;;;;;;;;;;;5091096;28;19970;-62
2023/04/21 15:13:13;;;;;;;;;;;;;;;;;;5086782;28;20542;-62
2023/04/21 15:15:39;;;;;;;;;;;;;;;;;;5081563;28;20019;-62
2023/04/21 15:18:05;;;;;;;;;;;;;;;;;;5086292;28;19920;-62
2023/04/21 15:20:31;;;;;;;;;;;;;;;;;;5071608;28;22077;-62
2023/04/21 15:22:57;;;;;;;;;;;;;;;;;;5090566;28;19924;-62
2023/04/21 15:25:23;;;;;;;;;;;;;;;;;;5089666;28;19946;-62
2023/04/21 15:27:49;;;;;;;;;;;;;;;;;;5090399;28;19990;-62
2023/04/21 15:30:15;;;;;;;;;;;;;;;;;;5081250;28;19924;-62
2023/04/21 15:32:41;;;;;;;;;;;;;;;;;;5081164;28;19928;-62
2023/04/21 15:35:07;;;;;;;;;;;;;;;;;;5075941;28;19920;-62
2023/04/21 15:37:33;;;;;;;;;;;;;;;;;;5071608;28;19931;-63
2023/04/21 15:39:58;;;;;;;;;;;;;;;;;;5092537;28;19956;-62
2023/04/21 15:42:24;;;;;;;;;;;;;;;;;;5093823;28;20352;-63
2023/04/21 15:44:50;;;;;;;;;;;;;;;;;;5082866;28;20362;-63
2023/04/21 15:47:16;;;;;;;;;;;;;;;;;;5093441;28;19923;-63
2023/04/21 15:49:42;;;;;;;;;;;;;;;;;;5093701;28;20011;-63
2023/04/21 15:52:08;;;;;;;;;;;;;;;;;;5069109;28;19985;-62
2023/04/21 15:54:34;;;;;;;;;;;;;;;;;;5088007;28;19989;-63
2023/04/21 15:57:04;;;;;;;;;;;;;;;;;;5058383;28;19924;-62
2023/04/21 15:59:30;;;;;;;;;;;;;;;;;;5086606;28;20257;-62
2023/04/21 16:01:56;;;;;;;;;;;;;;;;;;5088811;28;19927;-62
2023/04/21 16:04:21;;;;;;;;;;;;;;;;;;5073749;28;19924;-62
2023/04/21 16:06:48;;;;;;;;;;;;;;;;;;5087545;28;19924;-62
2023/04/21 16:09:15;;;;;;;;;;;;;;;;;;5092052;28;20045;-62
2023/04/21 16:11:41;;;;;;;;;;;;;;;;;;5094303;28;20278;-62
2023/04/21 16:14:07;;;;;;;;;;;;;;;;;;5093544;28;19928;-62
2023/04/21 16:16:35;;;;;;;;;;;;;;;;;;5087451;28;19920;-62
2023/04/21 16:19:01;;;;;;;;;;;;;;;;;;5081841;28;19921;-62
2023/04/21 16:21:27;;;;;;;;;;;;;;;;;;5081820;28;20292;-62
2023/04/21 16:23:53;;;;;;;;;;;;;;;;;;5089066;28;19920;-63
2023/04/21 16:26:18;;;;;;;;;;;;;;;;;;5093445;28;19981;-62
2023/04/21 16:28:44;;;;;;;;;;;;;;;;;;5086459;28;19920;-62
2023/04/21 16:31:10;;;;;;;;;;;;;;;;;;5093316;28;20295;-62
2023/04/21 16:33:36;;;;;;;;;;;;;;;;;;5093446;28;19924;-62
2023/04/21 16:36:02;;;;;;;;;;;;;;;;;;5074928;28;19927;-62
2023/04/21 16:38:28;;;;;;;;;;;;;;;;;;5072422;28;19924;-62